Time;durP1;ratioP1;P1;durP2;ratioP2;P2;SDS_P1;SDS_P2;PMS_P1;PMS_P2;Temp;Humidity;BMP_temperature;BMP_pressure;BME280_temperature;BME280_humidity;BME280_pressure;Samples;Min_cycle;Max_cycle;Signal;HPM_P1;HPM_P2
2024/04/06 00:01:15;;;;;;;4.68;2.20;;;16.70;99.90;;;;;;5056287;28;20036;-56
2024/04/06 00:03:41;;;;;;;3.88;1.90;;;16.70;99.90;;;;;;5056560;28;20055;-56
2024/04/06 00:06:07;;;;;;;4.97;2.25;;;16.70;99.90;;;;;;5055192;28;20365;-51
2024/04/06 00:08:33;;;;;;;5.07;2.00;;;16.70;99.90;;;;;;5054861;28;20038;-50
2024/04/06 00:10:58;;;;;;;5.82;2.95;;;16.70;99.90;;;;;;5054962;28;20443;-56
2024/04/06 00:13:24;;;;;;;5.15;1.98;;;16.70;99.90;;;;;;5055013;28;20518;-51
2024/04/06 00:15:49;;;;;;;4.47;2.55;;;16.70;99.90;;;;;;5055091;28;20067;-53
2024/04/06 00:18:16;;;;;;;6.13;2.53;;;16.70;99.90;;;;;;5054605;28;20532;-54
2024/04/06 00:20:41;;;;;;;5.38;2.72;;;16.70;99.90;;;;;;5054618;28;20025;-52
2024/04/06 00:23:07;;;;;;;9.60;2.28;;;16.70;99.90;;;;;;5054717;28;20037;-53
2024/04/06 00:25:32;;;;;;;2.90;2.25;;;16.70;99.90;;;;;;5054800;28;20033;-55
2024/04/06 00:27:58;;;;;;;2.92;1.92;;;16.80;99.90;;;;;;5054821;28;20033;-54
2024/04/06 00:30:23;;;;;;;6.93;2.20;;;16.80;99.90;;;;;;5054594;28;20120;-53
2024/04/06 00:32:48;;;;;;;3.95;2.58;;;16.90;99.90;;;;;;5054674;28;20021;-54
2024/04/06 00:35:15;;;;;;;4.72;2.53;;;16.90;99.90;;;;;;5054381;28;20541;-55
2024/04/06 00:37:41;;;;;;;3.95;1.83;;;16.90;99.90;;;;;;5054406;28;20017;-52
2024/04/06 00:40:07;;;;;;;3.92;2.03;;;16.80;99.90;;;;;;5036137;28;20032;-56
2024/04/06 00:42:32;;;;;;;11.68;3.05;;;16.80;99.90;;;;;;5054391;28;20032;-57
2024/04/06 00:44:58;;;;;;;4.35;2.13;;;16.70;99.90;;;;;;5054404;28;20025;-57
2024/04/06 00:47:23;;;;;;;3.97;2.50;;;16.70;99.90;;;;;;5036174;28;20029;-50
2024/04/06 00:49:49;;;;;;;2.47;1.90;;;16.80;99.90;;;;;;5035797;28;20033;-51
2024/04/06 00:52:14;;;;;;;7.07;1.90;;;16.70;99.90;;;;;;5054232;28;20035;-53
2024/04/06 00:54:40;;;;;;;5.75;2.15;;;16.80;99.90;;;;;;5054140;28;20021;-54
2024/04/06 00:57:07;;;;;;;7.47;4.60;;;16.70;99.90;;;;;;5053968;28;20017;-55
2024/04/06 00:59:34;;;;;;;3.97;2.75;;;16.70;99.90;;;;;;5053810;28;20500;-53
2024/04/06 01:01:59;;;;;;;6.07;2.95;;;16.70;99.90;;;;;;5054187;28;20484;-51
2024/04/06 01:04:25;;;;;;;4.55;2.40;;;16.70;99.90;;;;;;5054054;28;20075;-52
2024/04/06 01:06:51;;;;;;;2.70;1.92;;;16.80;99.90;;;;;;5054684;28;20025;-53
2024/04/06 01:09:16;;;;;;;4.38;2.30;;;16.90;99.90;;;;;;5035793;28;20052;-51
2024/04/06 01:11:42;;;;;;;4.38;2.60;;;16.90;99.90;;;;;;5054212;28;20029;-53
2024/04/06 01:14:07;;;;;;;4.90;2.00;;;16.90;99.90;;;;;;5053913;28;20087;-55
2024/04/06 01:16:34;;;;;;;4.05;2.30;;;16.80;99.90;;;;;;5053706;28;20428;-56
2024/04/06 01:18:59;;;;;;;2.50;2.13;;;16.70;99.90;;;;;;5053451;28;20063;-53
2024/04/06 01:21:26;;;;;;;7.78;2.63;;;16.70;99.90;;;;;;5053547;28;20025;-56
2024/04/06 01:23:52;;;;;;;3.85;2.22;;;16.60;99.90;;;;;;5053645;28;20028;-55
2024/04/06 01:26:18;;;;;;;5.80;2.92;;;16.50;99.90;;;;;;5053361;28;20021;-51
2024/04/06 01:28:44;;;;;;;4.10;2.33;;;16.60;99.90;;;;;;5053280;28;20082;-54
2024/04/06 01:31:10;;;;;;;7.03;2.90;;;16.50;99.90;;;;;;5053189;28;20100;-55
2024/04/06 01:33:35;;;;;;;7.38;2.55;;;16.40;99.90;;;;;;5052453;28;20028;-53
2024/04/06 01:36:00;;;;;;;3.85;2.33;;;16.40;99.90;;;;;;5053506;28;20474;-55
2024/04/06 01:38:26;;;;;;;5.72;2.35;;;16.40;99.90;;;;;;5053177;28;20021;-53
2024/04/06 01:40:52;;;;;;;2.63;2.40;;;16.40;99.90;;;;;;5053332;28;20040;-57
2024/04/06 01:43:17;;;;;;;6.32;2.60;;;16.30;99.90;;;;;;5035421;28;20036;-50
2024/04/06 01:45:43;;;;;;;6.15;2.25;;;16.30;99.90;;;;;;5053270;28;20139;-53
2024/04/06 01:48:08;;;;;;;5.30;2.63;;;16.20;99.90;;;;;;5052829;28;20102;-52
2024/04/06 01:50:34;;;;;;;4.80;2.45;;;16.20;99.90;;;;;;5053108;28;20500;-51
2024/04/06 01:52:59;;;;;;;6.72;2.72;;;16.20;99.90;;;;;;5053198;28;20492;-54
2024/04/06 01:55:25;;;;;;;4.72;2.88;;;16.10;99.90;;;;;;5052947;28;20071;-53
2024/04/06 01:57:50;;;;;;;5.53;2.22;;;16.10;99.90;;;;;;5052991;28;20366;-57
2024/04/06 02:00:16;;;;;;;2.78;2.40;;;16.10;99.90;;;;;;5052523;28;20496;-52
2024/04/06 02:02:42;;;;;;;2.58;2.17;;;16.10;99.90;;;;;;5035107;28;20036;-51
2024/04/06 02:05:07;;;;;;;5.93;2.42;;;16.00;99.90;;;;;;5052811;28;20483;-54
2024/04/06 02:07:32;;;;;;;5.30;2.78;;;16.10;99.90;;;;;;5052045;28;20029;-57
2024/04/06 02:09:58;;;;;;;2.88;2.47;;;16.10;99.90;;;;;;5052463;28;20032;-50
2024/04/06 02:12:23;;;;;;;8.23;2.90;;;16.10;99.90;;;;;;5052738;28;20033;-52
2024/04/06 02:14:49;;;;;;;2.72;2.40;;;16.00;99.90;;;;;;5034673;28;20021;-56
2024/04/06 02:17:14;;;;;;;3.97;2.13;;;16.00;99.90;;;;;;5052251;28;20017;-52
2024/04/06 02:19:40;;;;;;;4.63;2.50;;;15.90;99.90;;;;;;5052188;28;20056;-55
2024/04/06 02:22:06;;;;;;;8.43;2.33;;;15.90;99.90;;;;;;5052621;28;20143;-54
2024/04/06 02:24:31;;;;;;;6.38;2.50;;;15.90;99.90;;;;;;5052413;28;20104;-54
2024/04/06 02:26:57;;;;;;;5.03;2.63;;;15.90;99.90;;;;;;5052355;28;20024;-51
2024/04/06 02:29:23;;;;;;;10.40;2.10;;;15.90;99.90;;;;;;5051820;28;20500;-52
2024/04/06 02:31:48;;;;;;;6.85;2.70;;;15.90;99.90;;;;;;5052173;28;20052;-50
2024/04/06 02:34:14;;;;;;;4.72;2.00;;;15.80;99.90;;;;;;5052217;28;20400;-56
2024/04/06 02:36:39;;;;;;;4.75;2.50;;;15.80;99.90;;;;;;5052207;28;20476;-56
2024/04/06 02:39:12;;;;;;;2.92;2.33;;;15.80;99.90;;;;;;5033919;28;20445;-54
2024/04/06 02:41:38;;;;;;;4.28;3.17;;;15.70;99.90;;;;;;5051983;28;20025;-58
2024/04/06 02:44:04;;;;;;;9.75;3.33;;;15.70;99.90;;;;;;5052124;28;20163;-54
2024/04/06 02:46:29;;;;;;;5.53;2.80;;;15.70;99.90;;;;;;5052056;28;20120;-53
2024/04/06 02:48:54;;;;;;;4.40;2.72;;;15.70;99.90;;;;;;5051638;28;20029;-55
2024/04/06 02:51:20;;;;;;;6.88;3.10;;;15.60;99.90;;;;;;5051835;28;20510;-53
2024/04/06 02:53:45;;;;;;;4.70;2.53;;;15.60;99.90;;;;;;5051983;28;20100;-55
2024/04/06 02:56:12;;;;;;;5.63;2.72;;;15.60;99.90;;;;;;5051887;28;20056;-55
2024/04/06 02:58:37;;;;;;;10.10;3.28;;;15.60;99.90;;;;;;5051471;28;20032;-54
2024/04/06 03:01:03;;;;;;;5.68;2.85;;;15.50;99.90;;;;;;5051549;28;20029;-52
2024/04/06 03:03:29;;;;;;;5.72;2.40;;;15.50;99.90;;;;;;5051587;28;20037;-54
2024/04/06 03:05:54;;;;;;;3.13;2.40;;;15.40;99.90;;;;;;5051559;28;20472;-53
2024/04/06 03:08:20;;;;;;;8.18;2.63;;;15.40;99.90;;;;;;5051383;28;20143;-52
2024/04/06 03:10:45;;;;;;;10.10;3.00;;;15.40;99.90;;;;;;5051532;28;20478;-56
2024/04/06 03:13:10;;;;;;;6.15;2.97;;;15.30;99.90;;;;;;5052025;28;20523;-51
2024/04/06 03:15:36;;;;;;;7.50;2.72;;;15.30;99.90;;;;;;5051734;28;20024;-55
2024/04/06 03:18:02;;;;;;;3.20;2.60;;;15.30;99.90;;;;;;5051357;28;20021;-53
2024/04/06 03:20:27;;;;;;;5.35;2.92;;;15.30;99.90;;;;;;5050543;28;20025;-55
2024/04/06 03:23:03;;;;;;;7.15;2.63;;;15.30;99.90;;;;;;5051488;28;20090;-52
2024/04/06 03:25:30;;;;;;;7.70;2.50;;;15.30;99.90;;;;;;5051415;28;20112;-54
2024/04/06 03:27:56;;;;;;;6.07;2.28;;;15.30;99.90;;;;;;5033430;28;20071;-56
2024/04/06 03:30:23;;;;;;;7.28;2.67;;;15.30;99.90;;;;;;5033445;28;20060;-52
2024/04/06 03:32:52;;;;;;;3.50;2.53;;;15.30;99.90;;;;;;5051405;28;20468;-52
2024/04/06 03:35:19;;;;;;;4.32;2.65;;;15.30;99.90;;;;;;5051511;28;20055;-54
2024/04/06 03:37:49;;;;;;;5.47;2.72;;;15.30;99.90;;;;;;5051388;28;20048;-54
2024/04/06 03:40:15;;;;;;;9.55;2.45;;;15.30;99.90;;;;;;5050848;28;20033;-53
2024/04/06 03:42:41;;;;;;;4.82;2.40;;;15.30;99.90;;;;;;5033399;28;20036;-52
2024/04/06 03:45:07;;;;;;;3.42;2.90;;;15.30;99.90;;;;;;5033384;28;20131;-52
2024/04/06 03:47:32;;;;;;;2.13;2.00;;;15.30;99.90;;;;;;5051234;28;20120;-52
2024/04/06 03:49:58;;;;;;;3.40;2.50;;;15.30;99.90;;;;;;5033001;28;20065;-52
2024/04/06 03:52:26;;;;;;;6.15;2.67;;;15.40;99.90;;;;;;5051172;28;20025;-52
2024/04/06 03:54:52;;;;;;;5.95;2.70;;;15.30;99.90;;;;;;5051137;28;20096;-57
2024/04/06 03:57:18;;;;;;;5.05;2.45;;;15.40;99.90;;;;;;5051462;28;20457;-55
2024/04/06 03:59:43;;;;;;;5.88;3.28;;;15.30;99.90;;;;;;5051003;28;20396;-55
2024/04/06 04:02:09;;;;;;;5.45;2.60;;;15.30;99.90;;;;;;5033284;28;20025;-55
2024/04/06 04:04:35;;;;;;;6.05;2.30;;;15.30;99.90;;;;;;5051257;28;20070;-55
2024/04/06 04:07:00;;;;;;;8.55;2.30;;;15.30;99.90;;;;;;5033283;28;20579;-52
2024/04/06 04:09:26;;;;;;;2.83;2.47;;;15.30;99.90;;;;;;5032810;28;20021;-51
2024/04/06 04:11:51;;;;;;;14.65;3.22;;;15.30;99.90;;;;;;5051125;28;20036;-55
2024/04/06 04:14:17;;;;;;;4.25;2.53;;;15.30;99.90;;;;;;5051049;28;20096;-51
2024/04/06 04:16:42;;;;;;;3.42;3.00;;;15.30;99.90;;;;;;5033325;28;20171;-58
2024/04/06 04:19:08;;;;;;;5.25;3.05;;;15.30;99.90;;;;;;5050722;28;20025;-55
2024/04/06 04:21:33;;;;;;;3.58;2.30;;;15.30;99.90;;;;;;5033030;28;20124;-51
2024/04/06 04:23:59;;;;;;;6.43;2.15;;;15.40;99.90;;;;;;5033118;28;20025;-50
2024/04/06 04:26:24;;;;;;;4.15;2.38;;;15.30;99.90;;;;;;5050980;28;20033;-48
2024/04/06 04:28:50;;;;;;;5.78;2.25;;;15.30;99.90;;;;;;5050559;28;20025;-55
2024/04/06 04:31:17;;;;;;;6.47;2.25;;;15.20;99.90;;;;;;5052595;28;20109;-51
2024/04/06 04:33:43;;;;;;;3.22;2.10;;;15.10;99.90;;;;;;5055121;28;20076;-53
2024/04/06 04:36:10;;;;;;;5.60;2.42;;;15.10;99.90;;;;;;5054525;28;20146;-54
2024/04/06 04:38:36;;;;;;;4.85;1.88;;;15.10;99.90;;;;;;5054319;28;20045;-56
2024/04/06 04:41:02;;;;;;;7.60;2.20;;;15.00;99.90;;;;;;5054361;28;20083;-51
2024/04/06 04:43:28;;;;;;;4.57;1.98;;;15.00;99.90;;;;;;5054735;28;20024;-53
2024/04/06 04:45:54;;;;;;;3.40;1.90;;;15.00;99.90;;;;;;5054455;28;20063;-53
2024/04/06 04:48:19;;;;;;;5.70;2.05;;;15.00;99.90;;;;;;5055118;28;20048;-54
2024/04/06 04:50:45;;;;;;;3.63;1.95;;;15.00;99.90;;;;;;5054249;28;20504;-54
2024/04/06 04:53:10;;;;;;;2.33;2.00;;;15.00;99.90;;;;;;5036631;28;20492;-52
2024/04/06 04:55:39;;;;;;;2.90;2.10;;;15.00;99.90;;;;;;5055452;28;20066;-57
2024/04/06 04:58:05;;;;;;;4.97;1.77;;;15.00;99.90;;;;;;5038430;28;20100;-56
2024/04/06 05:00:31;;;;;;;7.35;1.80;;;15.10;99.90;;;;;;5057107;28;20442;-56
2024/04/06 05:02:56;;;;;;;2.22;1.90;;;15.00;99.90;;;;;;5056021;28;20025;-53
2024/04/06 05:05:22;;;;;;;6.40;2.50;;;15.00;99.90;;;;;;5054121;28;20111;-54
2024/04/06 05:07:48;;;;;;;3.83;1.92;;;15.00;99.90;;;;;;5036124;28;20028;-53
2024/04/06 05:10:14;;;;;;;6.30;1.92;;;15.00;99.90;;;;;;5035671;28;20098;-53
2024/04/06 05:12:39;;;;;;;4.53;2.08;;;15.00;99.90;;;;;;5053907;28;20543;-52
2024/04/06 05:15:05;;;;;;;4.70;2.15;;;15.00;99.90;;;;;;5035824;28;20071;-53
2024/04/06 05:17:30;;;;;;;4.35;1.75;;;15.10;99.90;;;;;;5052442;28;20120;-51
2024/04/06 05:19:56;;;;;;;5.35;2.08;;;15.10;99.90;;;;;;5035532;28;20035;-56
2024/04/06 05:22:21;;;;;;;2.63;2.08;;;15.10;99.90;;;;;;5053549;28;20083;-52
2024/04/06 05:24:47;;;;;;;6.53;2.10;;;15.20;99.90;;;;;;5035733;28;20476;-52
2024/04/06 05:27:12;;;;;;;2.55;1.90;;;15.30;99.90;;;;;;5053702;28;20029;-53
2024/04/06 05:29:38;;;;;;;4.93;2.00;;;15.50;99.90;;;;;;5053253;28;20036;-55
2024/04/06 05:32:04;;;;;;;3.50;2.33;;;15.70;99.90;;;;;;5053539;28;20029;-53
2024/04/06 05:34:30;;;;;;;5.22;2.33;;;16.00;99.90;;;;;;5053449;28;20049;-50
2024/04/06 05:36:55;;;;;;;6.35;1.85;;;16.20;99.90;;;;;;5053281;28;20032;-55
2024/04/06 05:39:21;;;;;;;3.38;2.00;;;16.30;99.90;;;;;;5052895;28;20543;-54
2024/04/06 05:41:47;;;;;;;2.60;1.60;;;16.40;99.90;;;;;;5034959;28;20025;-50
2024/04/06 05:44:13;;;;;;;3.47;1.77;;;16.60;99.90;;;;;;5034962;28;20017;-55
2024/04/06 05:46:39;;;;;;;6.18;2.20;;;16.70;99.90;;;;;;5053713;28;20488;-58
2024/04/06 05:49:05;;;;;;;5.70;1.65;;;16.90;99.90;;;;;;5050349;28;20056;-52
2024/04/06 05:51:32;;;;;;;5.25;2.10;;;17.00;99.90;;;;;;5033729;28;20425;-51
2024/04/06 05:53:57;;;;;;;4.60;2.03;;;17.10;99.90;;;;;;5046306;28;20025;-54
2024/04/06 05:56:23;;;;;;;11.23;1.80;;;17.30;99.90;;;;;;5053454;28;20561;-50
2024/04/06 05:58:48;;;;;;;2.72;1.90;;;17.30;99.90;;;;;;5052746;28;20476;-52
2024/04/06 06:01:14;;;;;;;6.25;1.85;;;17.40;99.90;;;;;;5052724;28;20523;-53
2024/04/06 06:03:39;;;;;;;3.47;2.08;;;17.40;99.90;;;;;;5024115;28;20026;-54
2024/04/06 06:06:05;;;;;;;5.72;1.83;;;17.60;99.90;;;;;;5033722;28;20512;-51
2024/04/06 06:08:30;;;;;;;5.35;2.40;;;17.70;99.90;;;;;;5032490;28;20134;-56
2024/04/06 06:10:56;;;;;;;3.22;1.83;;;18.00;99.90;;;;;;5032555;28;20025;-52
2024/04/06 06:13:22;;;;;;;4.78;1.95;;;18.30;99.90;;;;;;5014896;28;20024;-54
2024/04/06 06:15:47;;;;;;;4.72;2.00;;;18.50;99.90;;;;;;5044037;28;20028;-51
2024/04/06 06:18:13;;;;;;;4.57;1.90;;;18.70;99.90;;;;;;5032633;28;20017;-53
2024/04/06 06:20:38;;;;;;;9.05;1.90;;;19.00;99.90;;;;;;5052251;28;20485;-56
2024/04/06 06:23:04;;;;;;;2.30;1.60;;;19.20;99.90;;;;;;5052497;28;20076;-50
2024/04/06 06:25:31;;;;;;;4.10;1.70;;;19.40;99.90;;;;;;5052422;28;20495;-52
2024/04/06 06:27:57;;;;;;;2.03;1.65;;;19.80;99.90;;;;;;5040278;28;20405;-53
2024/04/06 06:30:23;;;;;;;2.20;1.63;;;20.30;99.50;;;;;;5033571;28;20033;-51
2024/04/06 06:32:48;;;;;;;2.72;1.80;;;20.50;99.80;;;;;;5032717;28;20032;-51
2024/04/06 06:35:14;;;;;;;1.63;1.25;;;20.70;99.60;;;;;;5014820;28;20056;-51
2024/04/06 06:37:39;;;;;;;1.88;1.55;;;21.00;99.30;;;;;;5032447;28;20032;-54
2024/04/06 06:40:05;;;;;;;2.97;1.70;;;21.50;98.30;;;;;;5031941;28;20033;-53
2024/04/06 06:42:31;;;;;;;3.50;1.42;;;22.10;97.90;;;;;;5032265;28;20030;-53
2024/04/06 06:44:56;;;;;;;2.47;1.67;;;22.80;96.70;;;;;;5032038;28;20037;-50
2024/04/06 06:47:25;;;;;;;5.20;1.30;;;23.20;96.00;;;;;;5032036;28;20033;-52
2024/04/06 06:49:51;;;;;;;6.03;1.65;;;23.80;94.70;;;;;;5031712;28;20116;-53
2024/04/06 06:52:16;;;;;;;2.97;1.50;;;24.20;94.00;;;;;;5031977;28;20100;-52
2024/04/06 06:54:42;;;;;;;3.75;1.23;;;24.00;93.80;;;;;;5031831;28;20493;-51
2024/04/06 06:57:07;;;;;;;2.85;1.45;;;23.70;93.90;;;;;;5032031;28;20033;-56
2024/04/06 06:59:33;;;;;;;3.05;1.75;;;23.40;94.00;;;;;;5031601;28;20444;-52
2024/04/06 07:01:58;;;;;;;4.20;1.25;;;23.00;93.90;;;;;;5032028;28;20033;-54
2024/04/06 07:04:24;;;;;;;2.55;1.63;;;22.60;94.20;;;;;;5031896;28;20021;-55
2024/04/06 07:06:49;;;;;;;3.20;1.05;;;22.20;94.80;;;;;;5020185;23;20045;-45
2024/04/06 07:09:15;;;;;;;2.88;1.48;;;21.90;95.50;;;;;;5011412;28;20482;-46
2024/04/06 07:11:41;;;;;;;1.92;0.98;;;21.60;95.60;;;;;;5012514;28;20478;-45
2024/04/06 07:14:11;;;;;;;2.50;1.50;;;21.40;96.30;;;;;;5012146;28;20080;-45
2024/04/06 07:16:37;;;;;;;2.78;1.55;;;21.20;96.40;;;;;;4994566;28;20021;-45
2024/04/06 07:19:02;;;;;;;5.82;1.92;;;20.90;96.80;;;;;;5011953;28;20018;-47
2024/04/06 07:21:28;;;;;;;3.17;1.65;;;20.90;97.20;;;;;;5012695;28;20497;-46
2024/04/06 07:23:53;;;;;;;2.45;1.40;;;21.50;97.40;;;;;;4994617;28;20223;-49
2024/04/06 07:26:19;;;;;;;5.38;1.95;;;22.50;96.00;;;;;;4994187;28;20049;-49
2024/04/06 07:28:44;;;;;;;3.70;2.15;;;23.10;95.30;;;;;;5011073;28;20566;-58
2024/04/06 07:31:10;;;;;;;9.57;1.65;;;23.40;94.20;;;;;;5011748;28;20044;-48
2024/04/06 07:33:35;;;;;;;2.60;1.48;;;23.30;94.40;;;;;;5011824;28;20061;-50
2024/04/06 07:36:01;;;;;;;2.45;1.50;;;23.30;94.40;;;;;;5011624;28;20025;-51
2024/04/06 07:38:27;;;;;;;2.90;1.60;;;23.30;94.90;;;;;;5011440;28;20026;-45
2024/04/06 07:40:59;;;;;;;1.60;1.30;;;23.30;94.00;;;;;;5011640;28;20033;-46
2024/04/06 07:43:26;;;;;;;2.88;1.35;;;23.20;94.00;;;;;;5011551;28;20533;-51
2024/04/06 07:45:51;;;;;;;5.88;1.73;;;22.90;94.70;;;;;;5011500;28;20037;-52
2024/04/06 07:48:17;;;;;;;8.68;2.53;;;22.70;95.00;;;;;;5011178;28;20030;-49
2024/04/06 07:50:44;;;;;;;3.80;2.33;;;22.60;95.30;;;;;;5011458;28;20080;-51
2024/04/06 07:53:10;;;;;;;2.50;1.55;;;22.30;95.60;;;;;;5011571;28;20022;-52
2024/04/06 07:55:35;;;;;;;3.25;1.50;;;22.30;95.70;;;;;;5011554;28;20109;-52
2024/04/06 07:58:01;;;;;;;2.78;1.60;;;22.50;95.40;;;;;;5011144;28;20054;-45
2024/04/06 08:00:27;;;;;;;3.60;1.63;;;22.90;95.70;;;;;;5011297;28;20030;-50
2024/04/06 08:02:52;;;;;;;2.28;1.73;;;23.70;94.90;;;;;;5011516;28;20058;-55
2024/04/06 08:05:17;;;;;;;5.00;2.00;;;24.00;94.00;;;;;;5011573;28;20026;-49
2024/04/06 08:07:43;;;;;;;3.40;1.83;;;24.40;93.70;;;;;;5014747;28;20042;-48
2024/04/06 08:10:20;;;;;;;2.60;1.45;;;24.50;93.50;;;;;;5014689;28;20038;-48
2024/04/06 08:12:46;;;;;;;1.75;1.63;;;25.10;93.00;;;;;;5015848;28;20152;-49
2024/04/06 08:15:12;;;;;;;4.47;1.80;;;27.10;90.70;;;;;;5014626;28;20034;-52
2024/04/06 08:17:43;;;;;;;3.20;1.50;;;27.50;90.00;;;;;;5014163;28;20500;-49
2024/04/06 08:20:09;;;;;;;3.90;1.85;;;28.80;86.90;;;;;;5013763;28;20025;-46
2024/04/06 08:22:35;;;;;;;3.97;1.20;;;28.80;86.80;;;;;;5014244;28;20069;-49
2024/04/06 08:25:04;;;;;;;6.22;1.60;;;29.50;84.90;;;;;;4996623;28;20076;-54
2024/04/06 08:27:31;;;;;;;2.92;1.55;;;29.80;82.20;;;;;;5014675;28;20405;-51
2024/04/06 08:29:56;;;;;;;5.95;1.70;;;29.50;81.20;;;;;;5014595;28;20030;-51
2024/04/06 08:32:22;;;;;;;4.35;1.58;;;29.20;81.70;;;;;;4996995;28;20026;-48
2024/04/06 08:34:54;;;;;;;1.48;1.08;;;29.30;80.10;;;;;;5014926;28;20021;-48
2024/04/06 08:37:19;;;;;;;4.22;1.42;;;29.70;80.70;;;;;;5014436;28;20022;-49
2024/04/06 08:39:45;;;;;;;1.45;1.15;;;29.90;79.60;;;;;;5014525;28;20544;-49
2024/04/06 08:42:16;;;;;;;2.75;1.25;;;30.20;78.70;;;;;;5014218;28;20034;-51
2024/04/06 08:44:43;;;;;;;4.63;1.45;;;30.60;77.50;;;;;;5014689;28;20029;-48
2024/04/06 08:47:14;;;;;;;6.53;1.33;;;31.20;75.70;;;;;;5014309;28;20017;-49
2024/04/06 08:49:40;;;;;;;3.92;0.90;;;31.50;75.20;;;;;;5014226;28;20076;-48
2024/04/06 08:52:07;;;;;;;2.45;1.05;;;32.00;71.10;;;;;;5014319;28;20386;-47
2024/04/06 08:54:32;;;;;;;4.70;1.17;;;32.30;69.70;;;;;;5014295;28;20026;-51
2024/04/06 08:57:00;;;;;;;1.27;0.70;;;32.60;68.00;;;;;;5014489;28;20033;-50
2024/04/06 08:59:26;;;;;;;2.28;1.08;;;32.80;67.30;;;;;;5013826;28;20501;-46
2024/04/06 09:01:52;;;;;;;2.83;1.05;;;32.60;67.60;;;;;;5014653;28;20086;-50
2024/04/06 09:04:18;;;;;;;2.53;1.10;;;32.80;66.30;;;;;;4996629;28;20522;-49
2024/04/06 09:06:44;;;;;;;2.80;1.10;;;32.80;65.80;;;;;;5014128;28;20034;-52
2024/04/06 09:09:10;;;;;;;3.22;1.20;;;32.80;65.10;;;;;;5014032;28;20029;-53
2024/04/06 09:11:38;;;;;;;8.55;3.55;;;32.90;65.50;;;;;;5014172;28;20485;-52
2024/04/06 09:14:06;;;;;;;2.78;0.90;;;32.70;65.00;;;;;;5014244;28;20645;-50
2024/04/06 09:16:36;;;;;;;3.25;1.17;;;32.60;64.80;;;;;;5013081;28;20030;-52
2024/04/06 09:19:02;;;;;;;1.63;1.17;;;32.50;64.30;;;;;;5004363;28;20018;-47
2024/04/06 09:21:28;;;;;;;6.80;1.00;;;31.60;65.10;;;;;;5013422;28;20161;-47
2024/04/06 09:23:54;;;;;;;2.63;1.48;;;30.90;66.20;;;;;;4995900;28;20034;-52
2024/04/06 09:26:21;;;;;;;1.05;1.00;;;30.60;67.60;;;;;;5013657;28;20041;-50
2024/04/06 09:28:50;;;;;;;6.03;1.20;;;30.20;67.90;;;;;;5013605;28;20531;-53
2024/04/06 09:31:22;;;;;;;2.75;1.02;;;29.60;68.50;;;;;;5013078;28;20030;-50
2024/04/06 09:33:57;;;;;;;2.55;1.10;;;29.20;68.10;;;;;;5013626;28;20393;-50
2024/04/06 09:36:23;;;;;;;1.67;1.50;;;29.00;69.60;;;;;;5013600;28;20053;-50
2024/04/06 09:38:49;;;;;;;3.50;1.17;;;28.90;69.40;;;;;;5012895;28;20033;-48
2024/04/06 09:41:16;;;;;;;4.93;1.10;;;28.40;69.20;;;;;;5012731;28;20112;-52
2024/04/06 09:43:46;;;;;;;4.20;1.92;;;28.20;70.20;;;;;;5012794;28;20080;-49
2024/04/06 09:46:12;;;;;;;2.42;1.30;;;27.60;71.10;;;;;;5011655;28;20038;-49
2024/04/06 09:48:41;;;;;;;6.80;1.60;;;27.50;72.20;;;;;;5011875;28;20038;-46
2024/04/06 09:51:07;;;;;;;2.50;1.67;;;27.50;73.20;;;;;;5013307;28;20060;-45
2024/04/06 09:53:34;;;;;;;2.72;1.45;;;27.20;73.20;;;;;;4981451;28;20037;-46
2024/04/06 09:56:02;;;;;;;3.47;1.17;;;27.20;74.70;;;;;;4993617;28;20026;-47
2024/04/06 09:58:29;;;;;;;3.45;1.25;;;27.20;75.80;;;;;;4993452;28;20037;-44
2024/04/06 10:01:07;;;;;;;2.97;1.30;;;27.10;74.60;;;;;;4995700;28;20053;-47
2024/04/06 10:03:36;;;;;;;4.70;1.15;;;27.00;75.10;;;;;;5001833;28;20029;-50
2024/04/06 10:06:27;;;;;;;2.05;1.17;;;27.10;76.50;;;;;;5001505;28;20027;-50
2024/04/06 10:08:59;;;;;;;2.65;1.00;;;26.90;75.80;;;;;;5007343;28;20022;-49
2024/04/06 10:11:27;;;;;;;1.83;1.23;;;26.80;76.80;;;;;;5012178;28;20042;-51
2024/04/06 10:14:04;;;;;;;2.63;1.60;;;26.60;78.20;;;;;;5012944;28;20101;-46
2024/04/06 10:16:32;;;;;;;1.95;1.10;;;26.40;79.80;;;;;;5012890;28;20396;-49
2024/04/06 10:18:59;;;;;;;1.58;1.02;;;26.20;79.90;;;;;;5012541;28;20014;-45
2024/04/06 10:21:36;;;;;;;5.25;1.45;;;26.30;77.30;;;;;;5013113;28;20417;-46
2024/04/06 10:24:09;;;;;;;3.85;1.13;;;26.10;77.00;;;;;;5012892;28;20028;-45
2024/04/06 10:26:44;;;;;;;5.40;1.38;;;26.00;76.80;;;;;;4995272;28;20033;-44
2024/04/06 10:29:12;;;;;;;2.47;1.25;;;25.70;77.40;;;;;;5012207;28;20409;-48
2024/04/06 10:31:42;;;;;;;6.65;1.90;;;25.40;77.30;;;;;;5012721;28;20038;-41
2024/04/06 10:34:08;;;;;;;1.42;1.20;;;25.40;80.80;;;;;;5012411;28;20033;-46
2024/04/06 10:36:34;;;;;;;1.40;1.30;;;25.30;79.50;;;;;;5012397;28;20030;-47
2024/04/06 10:39:04;;;;;;;3.40;1.50;;;25.20;78.90;;;;;;5027133;28;20029;-46
2024/04/06 10:41:31;;;;;;;2.00;1.00;;;25.10;80.50;;;;;;5012069;28;20565;-46
2024/04/06 10:43:57;;;;;;;1.10;1.00;;;25.20;78.80;;;;;;5009561;28;20448;-43
2024/04/06 10:46:23;;;;;;;3.63;1.13;;;25.10;79.30;;;;;;5031890;28;20440;-43
2024/04/06 10:48:49;;;;;;;3.28;1.48;;;25.00;79.70;;;;;;5030493;28;20065;-43
2024/04/06 10:51:14;;;;;;;1.58;1.10;;;24.80;80.90;;;;;;5024870;28;20402;-48
2024/04/06 10:53:40;;;;;;;22.58;17.02;;;24.60;79.40;;;;;;5029139;28;20053;-46
2024/04/06 10:56:06;;;;;;;24.00;17.48;;;24.30;81.60;;;;;;5029861;28;20079;-46
2024/04/06 10:58:31;;;;;;;61.42;38.03;;;24.40;82.50;;;;;;5030528;28;20029;-49
2024/04/06 11:00:57;;;;;;;4.32;1.80;;;24.40;82.40;;;;;;5031831;28;20416;-46
2024/04/06 11:03:22;;;;;;;1.92;1.13;;;24.40;78.90;;;;;;5031614;28;20033;-47
2024/04/06 11:05:48;;;;;;;1.85;1.23;;;24.40;80.40;;;;;;5031527;28;20116;-48
2024/04/06 11:08:14;;;;;;;2.28;1.20;;;24.40;79.50;;;;;;5031216;28;20544;-47
2024/04/06 11:10:39;;;;;;;1.60;1.42;;;24.30;78.90;;;;;;5030976;28;20516;-47
2024/04/06 11:13:05;;;;;;;5.30;1.00;;;24.40;80.20;;;;;;5031435;28;20026;-48
2024/04/06 11:15:30;;;;;;;2.10;1.30;;;24.50;81.70;;;;;;5031825;28;20132;-49
2024/04/06 11:17:57;;;;;;;1.60;1.02;;;24.60;80.20;;;;;;5031988;28;20032;-48
2024/04/06 11:20:23;;;;;;;2.05;1.30;;;24.70;79.90;;;;;;5031865;28;20036;-47
2024/04/06 11:22:50;;;;;;;3.17;1.98;;;24.60;79.40;;;;;;5031518;28;20029;-50
2024/04/06 11:25:21;;;;;;;3.35;1.23;;;24.60;80.20;;;;;;5013632;28;20072;-46
2024/04/06 11:27:49;;;;;;;1.90;1.20;;;24.50;80.60;;;;;;5031280;28;20041;-50
2024/04/06 11:30:18;;;;;;;5.70;1.10;;;24.50;80.90;;;;;;5013500;28;20125;-46
2024/04/06 11:32:45;;;;;;;4.07;1.65;;;24.50;81.50;;;;;;5031244;28;20029;-48
2024/04/06 11:35:11;;;;;;;2.00;1.20;;;24.50;79.50;;;;;;5031329;28;20017;-49
2024/04/06 11:37:38;;;;;;;3.80;1.00;;;24.50;81.00;;;;;;5031043;28;20080;-46
2024/04/06 11:40:04;;;;;;;1.80;1.00;;;24.50;77.40;;;;;;5031569;28;20477;-47
2024/04/06 11:42:30;;;;;;;2.60;1.25;;;24.50;78.00;;;;;;5035390;28;20025;-47
2024/04/06 11:44:55;;;;;;;0.80;0.80;;;24.60;78.50;;;;;;5035843;28;20085;-50
2024/04/06 11:47:21;;;;;;;3.13;1.17;;;24.50;77.70;;;;;;5035422;28;20063;-48
2024/04/06 11:49:48;;;;;;;1.60;0.80;;;24.50;76.60;;;;;;5034920;28;20026;-47
2024/04/06 11:52:13;;;;;;;20.60;14.65;;;24.50;77.20;;;;;;5034531;28;20177;-47
2024/04/06 11:54:39;;;;;;;2.92;1.60;;;24.50;76.40;;;;;;5035207;28;20025;-46
2024/04/06 11:57:05;;;;;;;2.85;1.73;;;24.40;76.70;;;;;;5035462;28;20074;-48
2024/04/06 11:59:30;;;;;;;1.23;0.90;;;24.40;78.40;;;;;;5033646;28;20102;-49
2024/04/06 12:01:56;;;;;;;1.80;1.30;;;24.50;76.60;;;;;;5034975;28;20136;-45
2024/04/06 12:04:22;;;;;;;3.28;1.10;;;24.50;73.80;;;;;;5034920;28;20014;-41
2024/04/06 12:06:48;;;;;;;6.43;0.90;;;24.40;73.40;;;;;;5034909;28;20040;-46
2024/04/06 12:09:14;;;;;;;2.03;0.80;;;24.30;73.30;;;;;;5034886;28;20025;-47
2024/04/06 12:11:39;;;;;;;1.58;1.10;;;24.40;72.40;;;;;;5034652;28;20400;-46
2024/04/06 12:14:05;;;;;;;3.45;1.08;;;24.40;74.10;;;;;;5034111;28;20021;-49
2024/04/06 12:16:31;;;;;;;3.22;1.13;;;24.40;73.50;;;;;;5034768;28;20505;-47
2024/04/06 12:18:58;;;;;;;1.13;0.80;;;24.40;75.20;;;;;;5034442;28;20028;-45
2024/04/06 12:21:24;;;;;;;1.15;1.00;;;24.40;73.90;;;;;;5034950;28;20021;-48
2024/04/06 12:23:49;;;;;;;1.58;1.10;;;24.50;74.50;;;;;;5034641;28;20025;-46
2024/04/06 12:26:15;;;;;;;2.13;1.02;;;24.50;75.10;;;;;;5034113;28;20481;-48
2024/04/06 12:28:41;;;;;;;1.83;1.15;;;24.60;74.30;;;;;;5033958;28;20033;-48
2024/04/06 12:31:06;;;;;;;1.13;0.77;;;24.60;75.20;;;;;;5035197;28;20076;-50
2024/04/06 12:33:32;;;;;;;2.65;1.10;;;24.60;74.50;;;;;;5033411;28;20026;-48
2024/04/06 12:35:58;;;;;;;2.58;0.90;;;24.60;73.30;;;;;;5034376;28;20104;-49
2024/04/06 12:38:24;;;;;;;1.77;1.27;;;24.60;75.30;;;;;;5034249;28;20440;-49
2024/04/06 12:40:49;;;;;;;2.55;1.13;;;24.60;74.40;;;;;;5034455;28;20030;-44